• Join FlightAware (Why Join?)
  • Login
  • US Flag 
12:54AM EDT


 

Airport Tracker/Info


-or-


 

Live Flight TrackerFlight Track Log ✈ EJA583 ✈ 19-Jul-2013 ✈ KMDW - CYQB

Flight Track Log - Related Links

Times and Time Zones

All times are in EDT time to prevent confusion due to time zone crossing. See the EJA583 flight status page for this flight to view local times or setup timezone preferences in your user account.

Time Position Orientation Groundspeed Altitude Reporting Facility
EDT Latitude Longitude Course Direction KTS MPH feet Rate Location/Type
03:46PM 41.7667 -87.7833 360° North 150 173 1,900  Level Chicago TRACON
03:47PM 41.8167 -87.7833 360° North 240 276 3,000 720 Climbing Chicago TRACON
03:49PM 41.8000 -87.6833 103° East 251 289 3,500 1,260 Climbing Chicago TRACON
03:50PM 41.7983 -87.6003 92° East 252 290 5,800 2,640 Climbing Chicago Center
03:51PM 41.7894 -87.4700 95° East 282 325 9,100 2,580 Climbing Chicago Center
03:52PM 41.7811 -87.3497 95° East 314 361 11,200 1,920 Climbing Chicago Center
03:53PM 41.7728 -87.2261 95° East 331 381 13,200 1,920 Climbing Chicago Center
03:54PM 41.7636 -87.0961 95° East 348 400 15,200 1,980 Climbing Chicago Center
03:55PM 41.7822 -86.9667 79° East 357 411 17,400 2,220 Climbing Chicago Center
03:56PM 41.8147 -86.8097 74° East 366 421 19,800 1,980 Climbing Chicago Center
03:57PM 41.8408 -86.6875 74° East 370 426 21,600 1,320 Climbing Chicago Center
03:58PM 41.8706 -86.5486 74° East 386 444 22,600 960 Climbing Chicago Center
03:59PM 41.9019 -86.3972 74° East 416 479 23,600 960 Climbing Chicago Center
04:00PM 41.9336 -86.2439 74° East 426 490 24,600 1,080 Climbing Chicago Center
04:01PM 41.9725 -86.0578 74° East 431 496 25,900 1,080 Climbing Chicago Center
04:02PM 42.0056 -85.9006 74° East 434 499 26,900 960 Climbing Chicago Center
04:03PM 42.0394 -85.7342 75° East 437 503 27,900 960 Climbing Chicago Center
04:04PM 42.0703 -85.5769 75° East 437 503 28,900 960 Climbing Chicago Center
04:05PM 42.1017 -85.4186 75° East 439 505 29,900 960 Climbing Chicago Center
04:06PM 42.1342 -85.2592 75° East 441 507 31,000 960 Climbing Chicago Center
04:07PM 42.1647 -85.0978 76° East 445 512 32,000 1,020 Climbing Chicago Center
04:08PM 42.2028 -84.9094 75° East 440 506 33,200 960 Climbing Chicago Center
04:09PM 42.2331 -84.7528 75° East 437 503 34,000 360 Climbing Chicago Center
04:10PM 42.2633 -84.5931 76° East 437 503 34,000  Level Chicago Center
04:11PM 42.2928 -84.4250 77° East 455 524 34,000 480 Level Chicago Center
04:12PM 42.3167 -84.2592 79° East 452 520 35,000 480 Climbing Chicago Center
04:13PM 42.3408 -84.0933 79° East 452 520 35,000  Level Chicago Center
04:14PM 42.3689 -83.8908 79° East 458 527 35,000  Level Chicago Center
04:16PM 42.3953 -83.6956 80° East 445 512 35,000  Level Cleveland Center
04:17PM 42.4222 -83.5339 77° East 445 512 35,000  Level Cleveland Center
04:18PM 42.4700 -83.3728 68° East 445 512 35,000  Level Cleveland Center
04:19PM 42.5092 -83.2194 71° East 439 505 35,000  Level Cleveland Center
04:20PM 42.5500 -83.0661 70° East 434 499 35,000  Level Cleveland Center
04:21PM 42.5908 -82.9100 70° East 434 499 35,000  Level Cleveland Center
04:22PM 42.6294 -82.7561 71° East 434 499 35,000  Level Cleveland Center
04:23PM 42.6697 -82.6050 70° East 434 499 35,000  Level Cleveland Center
04:24PM 42.7097 -82.4481 71° East 429 494 35,000  Level Cleveland Center
04:25PM 42.7519 -82.2881 70° East 436 502 35,000  Level Cleveland Center
04:26PM 42.8042 -82.1339 65° Northeast 442 509 35,000  Level Cleveland Center
04:27PM 42.8603 -81.9794 64° Northeast 447 514 35,000  Level Cleveland Center
04:27PM 42.9000 -81.8667 64° Northeast 460 529 35,000  Level Toronto Center
04:28PM 42.9500 -81.7000 68° East 460 529 35,000  Level Toronto Center
04:29PM 43.0000 -81.5500 65° Northeast 450 518 35,000  Level Toronto Center
04:30PM 43.0500 -81.3833 68° East 450 518 35,000  Level Toronto Center
04:31PM 43.1000 -81.2333 65° Northeast 450 518 35,000  Level Toronto Center
04:32PM 43.1500 -81.0667 68° East 460 529 35,000  Level Toronto Center
04:33PM 43.2000 -80.9167 65° Northeast 460 529 35,000  Level Toronto Center
04:34PM 43.2667 -80.7833 55° Northeast 460 529 35,000  Level Toronto Center
04:35PM 43.3333 -80.6000 63° Northeast 460 529 35,000  Level Toronto Center
04:36PM 43.3833 -80.4667 63° Northeast 460 529 35,000  Level Toronto Center
04:37PM 43.4333 -80.2833 69° East 460 529 35,000  Level Toronto Center
04:38PM 43.4833 -80.1333 65° Northeast 460 529 35,000  Level Toronto Center
04:39PM 43.5333 -79.9500 69° East 450 518 35,000  Level Toronto Center
04:40PM 43.5833 -79.8167 63° Northeast 440 506 35,000  Level Toronto Center
04:41PM 43.6333 -79.6500 67° East 460 529 35,000  Level Toronto Center
04:42PM 43.6833 -79.5167 63° Northeast 440 506 35,000  Level Toronto Center
04:43PM 43.7500 -79.3500 61° Northeast 450 518 35,000  Level Toronto Center
04:44PM 43.8167 -79.2000 58° Northeast 450 518 35,000  Level Toronto Center
04:45PM 43.8833 -79.0500 58° Northeast 460 529 35,000  Level Toronto Center
04:46PM 43.9500 -78.9167 55° Northeast 460 529 35,000  Level Toronto Center
04:47PM 44.0333 -78.7500 55° Northeast 460 529 35,000  Level Toronto Center
04:48PM 44.1000 -78.6167 55° Northeast 450 518 35,000  Level Toronto Center
04:49PM 44.1667 -78.4667 58° Northeast 450 518 35,000  Level Toronto Center
04:50PM 44.2500 -78.3500 45° Northeast 450 518 35,000  Level Toronto Center
04:51PM 44.3333 -78.2167 49° Northeast 450 518 35,000  Level Toronto Center
04:52PM 44.4167 -78.0667 52° Northeast 460 529 35,000  Level Toronto Center
04:53PM 44.5000 -77.9500 45° Northeast 460 529 35,000  Level Toronto Center
04:54PM 44.6000 -77.8000 47° Northeast 460 529 35,000  Level Toronto Center
04:55PM 44.6833 -77.6833 45° Northeast 460 529 35,000  Level Toronto Center
04:56PM 44.7667 -77.5500 49° Northeast 460 529 35,000  Level Toronto Center
04:57PM 44.8500 -77.4167 49° Northeast 450 518 35,000  Level Toronto Center
04:58PM 44.9333 -77.3000 45° Northeast 450 518 35,000  Level Toronto Center
04:59PM 45.0333 -77.1833 39° Northeast 450 518 35,000  Level Toronto Center
05:00PM 45.1167 -77.0500 48° Northeast 460 529 35,000  Level Toronto Center
05:01PM 45.2167 -76.9167 43° Northeast 460 529 35,000  Level Toronto Center
05:02PM 45.3167 -76.8167 35° Northeast 450 518 35,000  Level Toronto Center
05:03PM 45.4000 -76.6667 52° Northeast 450 518 35,000  Level Toronto Center
05:04PM 45.4667 -76.5167 58° Northeast 450 518 35,000  Level Toronto Center
05:05PM 45.5333 -76.3667 58° Northeast 450 518 35,000  Level Toronto Center
05:06PM 45.5833 -76.2000 67° East 450 518 35,000  Level Toronto Center
05:07PM 45.6167 -76.0333 74° East 450 518 35,000  Level Toronto Center
05:08PM 45.6667 -75.8667 67° East 460 529 35,000  Level Toronto Center
05:09PM 45.7167 -75.6833 69° East 460 529 35,000  Level Toronto Center
05:10PM 45.7500 -75.5167 74° East 450 518 35,000  Level Toronto Center
05:11PM 45.8000 -75.3500 67° East 430 495 35,000  Level Toronto Center
05:12PM 45.8333 -75.2000 72° East 420 483 35,000  Level Toronto Center
05:13PM 45.8667 -75.0500 72° East 410 472 35,000  Level Toronto Center
05:14PM 45.9000 -74.8833 74° East 410 472 35,000  Level Toronto Center
05:15PM 45.9500 -74.7333 64° Northeast 420 483 35,000  Level Toronto Center
05:16PM 45.9833 -74.5833 72° East 420 483 35,000  Level Toronto Center
05:17PM 46.0167 -74.4167 74° East 420 483 35,000  Level Toronto Center
05:18PM 46.0500 -74.2500 74° East 430 495 35,000  Level Toronto Center
05:19PM 46.1000 -74.1000 64° Northeast 430 495 35,000 -420 Level Toronto Center
05:20PM 46.1333 -73.9333 74° East 440 506 34,200 -1,440 Descending Toronto Center
05:22PM 46.2000 -73.6833 69° East 480 552 31,600 -1,980 Descending Montreal Center
05:23PM 46.2333 -73.5167 74° East 490 564 29,500 -2,160 Descending Montreal Center
05:24PM 46.3167 -73.3500 54° Northeast 470 541 27,300 -2,100 Descending Montreal Center
05:25PM 46.4333 -73.2667 26° Northeast 460 529 25,400 -1,920 Descending Montreal Center
05:26PM 46.5500 -73.1833 26° Northeast 470 541 23,500 -1,800 Descending Montreal Center
05:27PM 46.6000 -73.0167 66° East 450 518 21,800 -1,500 Descending Montreal Center
05:28PM 46.6500 -72.8333 68° East 430 495 20,500 -1,500 Descending Montreal Center
05:29PM 46.7000 -72.6667 66° East 450 518 18,800 -1,920 Descending Montreal Center
05:30PM 46.7500 -72.5333 61° Northeast 390 449 16,700 -1,740 Descending Montreal Center
05:31PM 46.7667 -72.4167 78° East 330 380 15,400 -1,200 Descending Montreal Center
05:32PM 46.8167 -72.2833 61° Northeast 300 345 14,300 -720 Descending Montreal Center
05:33PM 46.8500 -72.1833 64° Northeast 280 322 14,000 -180 Descending Montreal Center
05:34PM 46.8833 -72.0833 64° Northeast 270 311 14,000  Level Montreal Center
05:35PM 46.9000 -71.9833 76° East 270 311 14,000  Level Montreal Center
05:36PM 46.9333 -71.8667 67° East 270 311 14,000  Level Montreal Center
05:37PM 46.9500 -71.7667 76° East 270 311 14,000  Level Montreal Center
05:38PM 46.9833 -71.6667 64° Northeast 280 322 14,000  Level Montreal Center
05:39PM 47.0167 -71.5667 64° Northeast 270 311 14,000  Level Montreal Center
05:40PM 47.0333 -71.4667 76° East 270 311 14,000  Level Montreal Center
05:41PM 47.0667 -71.3500 67° East 270 311 14,000  Level Montreal Center
05:42PM 47.1000 -71.2500 64° Northeast 280 322 14,000  Level Montreal Center
05:43PM 47.1667 -71.2333 10° North 190 219 14,000  Level Montreal Center
05:44PM 47.1667 -71.3000 270° West 160 184 14,000  Level Montreal Center
05:45PM 47.1333 -71.3500 226° Southwest 170 196 14,000  Level Montreal Center
05:46PM 47.1167 -71.4333 254° West 180 207 14,000  Level Montreal Center
05:47PM 47.1000 -71.4833 244° Southwest 180 207 14,000  Level Montreal Center
05:48PM 47.0500 -71.4000 131° Southeast 240 276 14,000 -300 Level Montreal Center
05:49PM 47.0833 -71.3000 64° Northeast 260 299 13,400 -1,320 Descending Montreal Center
05:50PM 47.1167 -71.1833 67° East 290 334 11,400 -1,800 Descending Montreal Center
05:51PM 47.1000 -71.0833 104° East 250 288 9,800 -1,920 Descending Montreal Center
05:52PM 47.0333 -71.0833 180° South 230 265 7,600 -2,760 Descending Montreal Center
05:53PM 46.9667 -71.1167 199° South 220 253 4,300 -1,860 Descending Montreal Center
05:54PM 46.9333 -71.1667 226° Southwest 160 184 3,900 -900 Descending Montreal Center
05:55PM 46.9000 -71.2000 214° Southwest 130 150 2,500 -720 Descending Montreal Center
05:56PM 46.8833 -71.2333 234° Southwest 110 127 2,500 -360 Level Montreal Center
05:57PM 46.8500 -71.2500 199° South 110 127 1,800 -900 Descending Montreal Center
05:58PM 46.8333 -71.3000 244° Southwest 120 138 800 -600 Descending Montreal Center
05:59PM 46.8167 -71.3333 234° Southwest 110 127 700 -300 Descending Montreal Center
06:00PM 46.7833 -71.3667 214° Southwest 120 138 300 -420 Descending Montreal Center